Time;durP1;ratioP1;P1;durP2;ratioP2;P2;SDS_P1;SDS_P2;PMS_P1;PMS_P2;Temp;Humidity;BMP_temperature;BMP_pressure;BME280_temperature;BME280_humidity;BME280_pressure;Samples;Min_cycle;Max_cycle;Signal;HPM_P1;HPM_P2
2022/11/17 00:01:06;;;;;;;8.20;7.13;;;9.10;99.90;;;;;;5074822;28;20450;-69
2022/11/17 00:03:34;;;;;;;7.97;7.20;;;9.10;99.90;;;;;;5073960;28;20450;-68
2022/11/17 00:06:03;;;;;;;9.50;8.10;;;9.10;99.90;;;;;;5073629;28;20519;-69
2022/11/17 00:08:30;;;;;;;7.77;7.07;;;9.10;99.90;;;;;;5073541;28;20470;-68
2022/11/17 00:10:59;;;;;;;7.20;6.50;;;9.10;99.90;;;;;;5073635;28;20450;-68
2022/11/17 00:16:12;;;;;;;8.33;6.87;;;9.10;99.90;;;;;;5083459;28;20485;-69
2022/11/17 00:21:25;;;;;;;6.93;6.43;;;9.20;99.90;;;;;;5079896;28;20437;-69
2022/11/17 00:23:53;;;;;;;6.83;6.10;;;9.20;99.90;;;;;;5078664;28;20911;-70
2022/11/17 00:26:21;;;;;;;6.13;5.63;;;9.20;99.90;;;;;;5073840;28;20867;-69
2022/11/17 00:28:52;;;;;;;9.30;6.40;;;9.20;99.90;;;;;;5073539;28;20478;-69
2022/11/17 00:34:07;;;;;;;6.40;5.90;;;9.20;99.90;;;;;;5073465;28;20422;-69
2022/11/17 00:36:38;;;;;;;5.97;5.57;;;9.20;99.90;;;;;;5073762;28;20444;-69
2022/11/17 00:39:05;;;;;;;6.40;5.80;;;9.20;99.90;;;;;;5073331;28;20887;-69
2022/11/17 00:41:32;;;;;;;6.00;5.40;;;9.20;99.90;;;;;;5073411;28;20461;-69
2022/11/17 00:43:59;;;;;;;8.97;5.83;;;9.30;99.90;;;;;;5073053;28;20454;-70
2022/11/17 00:46:26;;;;;;;6.10;5.70;;;9.30;99.90;;;;;;5073004;28;20457;-69
2022/11/17 00:48:52;;;;;;;6.60;5.93;;;9.40;99.90;;;;;;5072945;28;21005;-69
2022/11/17 00:51:21;;;;;;;8.30;6.30;;;9.40;99.90;;;;;;5075099;28;20798;-69
2022/11/17 00:53:48;;;;;;;6.80;6.30;;;9.40;99.90;;;;;;5077575;28;20450;-69
2022/11/17 00:56:15;;;;;;;7.07;6.40;;;9.40;99.90;;;;;;5076883;28;20461;-69
2022/11/17 00:58:42;;;;;;;9.07;6.67;;;9.40;99.90;;;;;;5076744;28;20453;-69
2022/11/17 01:01:09;;;;;;;8.53;7.73;;;9.50;99.90;;;;;;5076531;28;20458;-69
2022/11/17 01:03:36;;;;;;;7.97;7.10;;;9.50;99.90;;;;;;5076714;28;20500;-69
2022/11/17 01:06:05;;;;;;;9.33;8.27;;;9.40;99.90;;;;;;5076458;28;20477;-69
2022/11/17 01:08:33;;;;;;;8.47;7.67;;;9.40;99.90;;;;;;5076409;28;20580;-69
2022/11/17 01:11:08;;;;;;;9.50;7.63;;;9.40;99.90;;;;;;5076546;28;20454;-69
2022/11/17 01:13:35;;;;;;;7.90;7.30;;;9.40;99.90;;;;;;5076513;28;20846;-69
2022/11/17 01:16:04;;;;;;;9.90;7.57;;;9.30;99.90;;;;;;5076393;28;20477;-70
2022/11/17 01:18:31;;;;;;;8.83;7.90;;;9.30;99.90;;;;;;5076551;28;20484;-69
2022/11/17 01:21:04;;;;;;;7.47;6.20;;;9.40;99.90;;;;;;5077431;28;20519;-69
2022/11/17 01:23:30;;;;;;;8.00;6.40;;;9.30;99.90;;;;;;5076785;28;20438;-68
2022/11/17 01:26:03;;;;;;;7.87;7.13;;;9.40;99.90;;;;;;5076214;28;20879;-69
2022/11/17 01:28:30;;;;;;;7.73;6.90;;;9.40;99.90;;;;;;5076355;28;20473;-69
2022/11/17 01:31:02;;;;;;;10.13;7.20;;;9.40;99.90;;;;;;5076208;28;20861;-68
2022/11/17 01:33:29;;;;;;;8.17;7.30;;;9.40;99.90;;;;;;5076157;28;20929;-69
2022/11/17 01:35:59;;;;;;;8.33;7.50;;;9.40;99.90;;;;;;5076323;28;20478;-69
2022/11/17 01:38:26;;;;;;;8.50;7.70;;;9.40;99.90;;;;;;5076614;28;20499;-69
2022/11/17 01:40:52;;;;;;;7.50;6.67;;;9.30;99.90;;;;;;5076476;28;20454;-69
2022/11/17 01:43:40;;;;;;;7.67;6.90;;;9.30;99.90;;;;;;5076175;28;20450;-70
2022/11/17 01:46:12;;;;;;;6.90;6.07;;;9.40;99.90;;;;;;5076189;28;20473;-69
2022/11/17 01:48:39;;;;;;;6.23;5.63;;;9.40;99.90;;;;;;5075656;28;20478;-69
2022/11/17 01:51:06;;;;;;;7.47;6.67;;;9.40;99.90;;;;;;5075783;28;20500;-69
2022/11/17 01:53:34;;;;;;;6.30;5.70;;;9.40;99.90;;;;;;5075604;28;20473;-69
2022/11/17 01:56:04;;;;;;;6.73;6.00;;;9.30;99.90;;;;;;5076024;28;20478;-69
2022/11/17 01:58:33;;;;;;;6.50;5.90;;;9.30;99.90;;;;;;5075652;28;20468;-69
2022/11/17 02:01:02;;;;;;;6.20;5.60;;;9.40;99.90;;;;;;5075716;28;20454;-68
2022/11/17 02:03:33;;;;;;;6.83;6.23;;;9.40;99.90;;;;;;5074087;28;20941;-69
2022/11/17 02:06:04;;;;;;;8.20;6.80;;;9.40;99.90;;;;;;5075124;28;20477;-69
2022/11/17 02:08:33;;;;;;;7.30;6.70;;;9.40;99.90;;;;;;5075282;28;20508;-69
2022/11/17 02:11:02;;;;;;;8.20;7.40;;;9.40;99.90;;;;;;5075353;28;20457;-68
2022/11/17 02:13:29;;;;;;;9.87;7.07;;;9.40;99.90;;;;;;5075238;28;20450;-69
2022/11/17 02:15:56;;;;;;;7.43;6.83;;;9.40;99.90;;;;;;5075016;28;20469;-68
2022/11/17 02:18:24;;;;;;;7.60;6.37;;;9.40;99.90;;;;;;5075226;28;20450;-69
2022/11/17 02:21:00;;;;;;;8.33;6.20;;;9.40;99.90;;;;;;5074828;28;20933;-69
2022/11/17 02:23:51;;;;;;;10.23;6.20;;;9.30;99.90;;;;;;5075704;28;20780;-70
2022/11/17 02:26:29;;;;;;;7.00;6.43;;;9.30;99.90;;;;;;5074652;28;20983;-69
2022/11/17 02:29:03;;;;;;;5.63;5.17;;;9.40;99.90;;;;;;5074876;28;20484;-69
2022/11/17 02:31:34;;;;;;;5.90;5.20;;;9.40;99.90;;;;;;5075410;28;20434;-70
2022/11/17 02:34:12;;;;;;;5.50;4.47;;;9.40;99.90;;;;;;5074804;28;20503;-69
2022/11/17 02:36:46;;;;;;;5.97;4.67;;;9.40;99.90;;;;;;5074832;28;20435;-70
2022/11/17 02:39:19;;;;;;;5.00;4.60;;;9.40;99.90;;;;;;5074753;28;20438;-70
2022/11/17 02:41:52;;;;;;;6.83;6.13;;;9.40;99.90;;;;;;5074966;28;20500;-69
2022/11/17 02:44:24;;;;;;;4.37;3.83;;;9.30;99.90;;;;;;5074536;28;20481;-69
2022/11/17 02:46:57;;;;;;;4.60;4.20;;;9.30;99.90;;;;;;5075014;28;20481;-70
2022/11/17 02:49:29;;;;;;;4.93;4.20;;;9.30;99.90;;;;;;5074181;28;20575;-69
2022/11/17 02:51:57;;;;;;;4.20;3.90;;;9.20;99.90;;;;;;5074507;28;20468;-69
2022/11/17 02:54:28;;;;;;;4.10;3.80;;;9.20;99.90;;;;;;5074906;28;20872;-69
2022/11/17 02:56:54;;;;;;;4.10;3.80;;;9.20;99.90;;;;;;5075619;28;20511;-70
2022/11/17 02:59:26;;;;;;;4.20;3.83;;;9.20;99.90;;;;;;5074783;28;20450;-69
2022/11/17 03:02:19;;;;;;;4.23;3.93;;;9.20;99.90;;;;;;5074351;28;20434;-69
2022/11/17 03:04:55;;;;;;;4.90;4.50;;;9.20;99.90;;;;;;5074153;28;20474;-68
2022/11/17 03:07:39;;;;;;;4.43;4.13;;;9.10;99.90;;;;;;5075806;28;20905;-68
2022/11/17 03:10:14;;;;;;;6.83;5.00;;;9.10;99.90;;;;;;5075761;28;20433;-68
2022/11/17 03:12:47;;;;;;;15.13;5.03;;;9.10;99.90;;;;;;5076618;28;20440;-69
2022/11/17 03:15:28;;;;;;;4.77;4.33;;;9.00;99.90;;;;;;5091769;28;20497;-69
2022/11/17 03:18:04;;;;;;;7.77;5.30;;;9.10;99.90;;;;;;5088968;28;20848;-69
2022/11/17 03:20:39;;;;;;;6.93;4.97;;;9.20;99.90;;;;;;5079906;28;20477;-68
2022/11/17 03:23:10;;;;;;;5.87;5.47;;;9.30;99.90;;;;;;5074328;28;20445;-68
2022/11/17 03:25:38;;;;;;;5.70;5.30;;;9.30;99.90;;;;;;5074187;28;20478;-69
2022/11/17 03:28:07;;;;;;;6.93;6.10;;;9.30;99.90;;;;;;5074152;28;20905;-69
2022/11/17 03:30:39;;;;;;;6.93;6.30;;;9.30;99.90;;;;;;5074024;28;20450;-68
2022/11/17 03:33:14;;;;;;;6.90;6.33;;;9.30;99.90;;;;;;5074001;28;20438;-69
2022/11/17 03:35:45;;;;;;;7.30;6.70;;;9.30;99.90;;;;;;5073958;28;20478;-69
2022/11/17 03:38:15;;;;;;;7.67;6.93;;;9.40;99.90;;;;;;5074629;28;20435;-69
2022/11/17 03:40:46;;;;;;;7.20;6.60;;;9.40;99.90;;;;;;5073972;28;20458;-69
2022/11/17 03:43:16;;;;;;;9.13;6.27;;;9.30;99.90;;;;;;5073771;28;20443;-69
2022/11/17 03:45:49;;;;;;;6.97;6.37;;;9.30;99.90;;;;;;5073751;28;20531;-69
2022/11/17 03:48:22;;;;;;;6.80;6.40;;;9.20;99.90;;;;;;5073732;28;20500;-70
2022/11/17 03:50:52;;;;;;;6.90;6.30;;;9.20;99.90;;;;;;5074055;28;20457;-69
2022/11/17 03:53:19;;;;;;;6.77;6.27;;;9.20;99.90;;;;;;5073725;28;20434;-69
2022/11/17 03:55:58;;;;;;;7.27;6.77;;;9.20;99.90;;;;;;5073469;28;20527;-70
2022/11/17 03:58:30;;;;;;;7.73;6.40;;;9.20;99.90;;;;;;5073600;28;20843;-70
2022/11/17 04:01:00;;;;;;;6.93;5.23;;;9.20;99.90;;;;;;5073661;28;20434;-69
2022/11/17 04:03:29;;;;;;;5.93;5.43;;;9.20;99.90;;;;;;5074054;28;20450;-69
2022/11/17 04:05:56;;;;;;;6.23;5.77;;;9.20;99.90;;;;;;5073754;28;20528;-70
2022/11/17 04:08:24;;;;;;;6.60;5.93;;;9.20;99.90;;;;;;5073503;28;20523;-70
2022/11/17 04:16:21;;;;;;;5.93;5.53;;;9.20;99.90;;;;;;5073505;28;20414;-70
2022/11/17 04:18:47;;;;;;;5.50;5.10;;;9.20;99.90;;;;;;5073382;28;20446;-69
2022/11/17 04:21:14;;;;;;;6.30;5.80;;;9.20;99.90;;;;;;5073389;28;20454;-70
2022/11/17 04:23:41;;;;;;;6.63;5.77;;;9.20;99.90;;;;;;5073308;28;20527;-69
2022/11/17 04:28:53;;;;;;;6.03;5.20;;;9.20;99.90;;;;;;5077225;28;20540;-69
2022/11/17 04:31:23;;;;;;;13.57;6.50;;;9.30;99.90;;;;;;5076827;28;21002;-69
2022/11/17 04:33:52;;;;;;;7.07;5.10;;;9.30;99.90;;;;;;5077253;28;20929;-70
2022/11/17 04:36:20;;;;;;;6.00;5.50;;;9.30;99.90;;;;;;5077105;28;20446;-69
2022/11/17 04:38:48;;;;;;;6.37;5.87;;;9.30;99.90;;;;;;5077560;28;20454;-70
2022/11/17 04:44:02;;;;;;;6.90;6.30;;;9.30;99.90;;;;;;5076822;28;20428;-69
2022/11/17 04:46:32;;;;;;;6.30;5.70;;;9.40;99.90;;;;;;5077214;28;20848;-70
2022/11/17 04:48:59;;;;;;;5.60;5.30;;;9.40;99.90;;;;;;5076562;28;20470;-70
2022/11/17 04:51:26;;;;;;;6.70;5.60;;;9.40;99.90;;;;;;5076886;28;20483;-70
2022/11/17 04:53:53;;;;;;;6.10;5.60;;;9.50;99.90;;;;;;5076773;28;20454;-70
2022/11/17 04:56:21;;;;;;;5.83;5.10;;;9.50;99.90;;;;;;5076523;28;20461;-70
2022/11/17 04:58:48;;;;;;;8.03;6.43;;;9.50;99.90;;;;;;5076848;28;20925;-69
2022/11/17 05:01:17;;;;;;;5.50;5.20;;;9.60;99.90;;;;;;5076830;28;20450;-70
2022/11/17 05:03:48;;;;;;;6.97;5.80;;;9.60;99.90;;;;;;5076672;28;20933;-69
2022/11/17 05:06:17;;;;;;;5.90;5.40;;;9.60;99.90;;;;;;5076652;28;20543;-69
2022/11/17 05:08:44;;;;;;;5.37;4.97;;;9.70;99.90;;;;;;5077061;28;20544;-70
2022/11/17 05:14:03;;;;;;;5.57;5.17;;;9.70;99.90;;;;;;5021338;28;20444;-69
2022/11/17 05:19:17;;;;;;;5.60;5.10;;;9.80;99.90;;;;;;5092930;28;20449;-69
2022/11/17 05:21:44;;;;;;;5.87;5.00;;;9.80;99.90;;;;;;5085068;28;20434;-69
2022/11/17 05:24:10;;;;;;;4.90;4.43;;;9.80;99.90;;;;;;5076876;28;20834;-69
2022/11/17 05:26:38;;;;;;;5.30;5.00;;;9.90;99.90;;;;;;5076512;28;20503;-70
2022/11/17 05:29:06;;;;;;;5.63;5.10;;;9.90;99.90;;;;;;5076463;28;20470;-70
2022/11/17 05:31:34;;;;;;;5.80;5.30;;;9.90;99.90;;;;;;5076568;28;20454;-70
2022/11/17 05:34:01;;;;;;;4.73;4.33;;;9.90;99.90;;;;;;5075886;28;20940;-69
2022/11/17 05:36:30;;;;;;;5.30;4.87;;;9.90;99.90;;;;;;5075867;28;20450;-70
2022/11/17 05:38:56;;;;;;;5.40;5.00;;;9.90;99.90;;;;;;5075830;28;21007;-69
2022/11/17 05:41:24;;;;;;;5.80;4.60;;;9.90;99.90;;;;;;5076205;28;20458;-70
2022/11/17 05:43:51;;;;;;;5.83;5.23;;;9.90;99.90;;;;;;5076158;28;20457;-69
2022/11/17 05:46:19;;;;;;;5.23;4.70;;;9.90;99.90;;;;;;5076445;28;20450;-70
2022/11/17 05:48:47;;;;;;;5.20;4.80;;;9.90;99.90;;;;;;5075514;28;20551;-70
2022/11/17 05:51:14;;;;;;;4.50;4.20;;;9.90;99.90;;;;;;5075717;28;20454;-69
2022/11/17 05:53:43;;;;;;;5.63;4.90;;;9.80;99.90;;;;;;5075708;28;20508;-69
2022/11/17 05:56:27;;;;;;;5.60;5.10;;;9.90;99.90;;;;;;5075186;28;20796;-70
2022/11/17 05:58:58;;;;;;;5.43;4.93;;;9.90;99.90;;;;;;5076315;28;20452;-70
2022/11/17 06:01:25;;;;;;;5.67;4.93;;;9.80;99.90;;;;;;5075886;28;20435;-69
2022/11/17 06:03:54;;;;;;;4.50;4.10;;;9.80;99.90;;;;;;5075719;28;20454;-69
2022/11/17 06:06:21;;;;;;;4.80;4.50;;;9.80;99.90;;;;;;5075722;28;20454;-69
2022/11/17 06:08:50;;;;;;;4.80;4.50;;;9.80;99.90;;;;;;5075292;28;20539;-69
2022/11/17 06:11:18;;;;;;;5.57;5.00;;;9.90;99.90;;;;;;5077476;28;20450;-69
2022/11/17 06:13:44;;;;;;;4.80;4.50;;;9.90;99.90;;;;;;5075788;28;20456;-71
2022/11/17 06:16:15;;;;;;;7.17;4.80;;;9.90;99.90;;;;;;5075469;28;20466;-69
2022/11/17 06:18:47;;;;;;;5.30;4.90;;;9.90;99.90;;;;;;5075532;28;20488;-68
2022/11/17 06:21:15;;;;;;;4.33;4.13;;;9.90;99.90;;;;;;5075487;28;20439;-68
2022/11/17 06:23:43;;;;;;;4.63;4.23;;;10.00;99.90;;;;;;5075612;28;20450;-69
2022/11/17 06:26:12;;;;;;;5.57;5.07;;;10.00;99.90;;;;;;5076600;28;20470;-68
2022/11/17 06:28:40;;;;;;;7.50;4.37;;;10.00;99.90;;;;;;5076956;28;20450;-68
2022/11/17 06:31:08;;;;;;;5.63;5.13;;;10.00;99.90;;;;;;5075531;28;20472;-68
2022/11/17 06:33:37;;;;;;;7.03;4.70;;;10.00;99.90;;;;;;5075301;28;20450;-68
2022/11/17 06:36:06;;;;;;;5.93;4.77;;;10.10;99.90;;;;;;5075304;28;20477;-68
2022/11/17 06:38:34;;;;;;;4.83;4.03;;;10.10;99.90;;;;;;5074948;28;20454;-69
2022/11/17 06:41:01;;;;;;;7.50;5.27;;;10.10;99.90;;;;;;5074618;28;20941;-68
2022/11/17 06:43:29;;;;;;;4.60;4.30;;;10.10;99.90;;;;;;5074774;28;20512;-70
2022/11/17 06:45:56;;;;;;;5.47;4.97;;;10.10;99.90;;;;;;5074755;28;20474;-69
2022/11/17 06:48:25;;;;;;;5.00;4.50;;;10.10;99.90;;;;;;5074459;28;20519;-69
2022/11/17 06:50:53;;;;;;;4.83;4.43;;;10.20;99.90;;;;;;5076602;28;20520;-69
2022/11/17 06:53:21;;;;;;;5.97;4.40;;;10.20;99.90;;;;;;5074639;28;20446;-70
2022/11/17 06:55:49;;;;;;;4.90;3.80;;;10.20;99.90;;;;;;5074572;28;20527;-69
2022/11/17 06:58:16;;;;;;;4.33;3.93;;;10.30;99.90;;;;;;5074742;28;20461;-69
2022/11/17 07:00:44;;;;;;;3.80;3.50;;;10.30;99.90;;;;;;5074644;28;20446;-70
2022/11/17 07:03:11;;;;;;;4.10;3.70;;;10.30;99.90;;;;;;5074641;28;20500;-69
2022/11/17 07:05:39;;;;;;;5.50;4.07;;;10.40;99.90;;;;;;5075415;28;20888;-70
2022/11/17 07:08:07;;;;;;;3.80;3.50;;;10.40;99.90;;;;;;5090086;28;20450;-71
2022/11/17 07:10:35;;;;;;;6.00;4.47;;;10.40;99.90;;;;;;5088399;28;20466;-69
2022/11/17 07:13:02;;;;;;;3.67;3.30;;;10.50;99.90;;;;;;5075054;28;20537;-69
2022/11/17 07:15:28;;;;;;;4.13;3.83;;;10.50;99.90;;;;;;5074312;28;20563;-69
2022/11/17 07:17:57;;;;;;;4.90;3.60;;;10.60;99.90;;;;;;5074268;28;20454;-69
2022/11/17 07:20:23;;;;;;;3.43;3.13;;;10.60;99.90;;;;;;5074335;28;20479;-70
2022/11/17 07:22:50;;;;;;;4.47;2.87;;;10.70;99.90;;;;;;5073894;28;20933;-70
2022/11/17 07:25:17;;;;;;;5.00;3.53;;;10.80;99.90;;;;;;5073948;28;20837;-68
2022/11/17 07:27:44;;;;;;;5.10;3.40;;;11.00;99.90;;;;;;5074315;28;20465;-69
2022/11/17 07:30:11;;;;;;;4.10;3.80;;;11.30;99.90;;;;;;5073989;28;20523;-70
2022/11/17 07:32:38;;;;;;;3.00;2.80;;;11.50;99.90;;;;;;5074131;28;20568;-70
2022/11/17 07:35:07;;;;;;;4.40;2.90;;;11.50;99.90;;;;;;5073982;28;20877;-70
2022/11/17 07:37:34;;;;;;;3.57;3.33;;;11.40;99.90;;;;;;5074058;28;20487;-69
2022/11/17 07:40:01;;;;;;;4.27;3.37;;;11.40;99.90;;;;;;5074053;28;20457;-70
2022/11/17 07:42:28;;;;;;;4.10;3.40;;;11.40;99.90;;;;;;5079474;28;20453;-68
2022/11/17 07:44:54;;;;;;;5.10;3.93;;;11.40;99.90;;;;;;5073848;28;21046;-69
2022/11/17 07:47:21;;;;;;;4.47;3.90;;;11.40;99.90;;;;;;5073921;28;20450;-69
2022/11/17 07:49:48;;;;;;;4.97;4.47;;;11.40;99.90;;;;;;5073832;28;20474;-68
2022/11/17 07:52:15;;;;;;;6.90;4.40;;;11.40;99.90;;;;;;5073978;28;20450;-68
2022/11/17 07:54:42;;;;;;;4.80;4.00;;;11.50;99.90;;;;;;5073626;28;20532;-68
2022/11/17 07:57:09;;;;;;;6.60;4.40;;;11.50;99.90;;;;;;5073607;28;20458;-69
2022/11/17 07:59:35;;;;;;;6.07;4.17;;;11.60;99.90;;;;;;5074504;28;20472;-69
2022/11/17 08:02:02;;;;;;;7.67;4.40;;;11.60;99.90;;;;;;5076145;28;20454;-69
2022/11/17 08:04:29;;;;;;;5.93;4.00;;;11.70;99.90;;;;;;5078003;28;20470;-67
2022/11/17 08:06:56;;;;;;;6.70;3.57;;;11.80;99.90;;;;;;5077701;28;20454;-68
2022/11/17 08:09:23;;;;;;;4.50;3.40;;;11.70;99.90;;;;;;5077663;28;20833;-68
2022/11/17 08:11:51;;;;;;;5.00;4.50;;;11.70;99.90;;;;;;5077316;28;20894;-68
2022/11/17 08:14:18;;;;;;;4.20;3.80;;;11.70;99.90;;;;;;5077673;28;20518;-68
2022/11/17 08:16:44;;;;;;;5.30;2.73;;;11.70;99.90;;;;;;5077763;28;20473;-68
2022/11/17 08:19:13;;;;;;;3.50;3.00;;;11.70;99.90;;;;;;5077637;28;21004;-68
2022/11/17 08:21:39;;;;;;;14.83;11.50;;;11.70;99.90;;;;;;5077614;28;20450;-68
2022/11/17 08:24:07;;;;;;;12.13;7.60;;;11.70;99.90;;;;;;5078457;28;20840;-68
2022/11/17 08:26:35;;;;;;;4.40;3.70;;;11.80;99.90;;;;;;5077632;28;20794;-68
2022/11/17 08:29:02;;;;;;;7.27;6.43;;;11.90;99.90;;;;;;5078041;28;20438;-69
2022/11/17 08:31:28;;;;;;;5.20;2.77;;;11.90;99.90;;;;;;5077848;28;20480;-68
2022/11/17 08:33:55;;;;;;;3.40;3.13;;;11.90;99.90;;;;;;5076992;28;20458;-69
2022/11/17 08:36:22;;;;;;;6.03;2.27;;;11.90;99.90;;;;;;5077704;28;20540;-68
2022/11/17 08:38:48;;;;;;;2.20;1.97;;;11.90;99.90;;;;;;5094227;28;20449;-68
2022/11/17 08:41:15;;;;;;;1.87;1.77;;;11.90;99.90;;;;;;5092853;28;20442;-69
2022/11/17 08:43:43;;;;;;;2.57;2.10;;;11.90;99.90;;;;;;5088974;28;20479;-69
2022/11/17 08:46:11;;;;;;;1.93;1.63;;;12.00;99.90;;;;;;5087559;28;20527;-68
2022/11/17 08:48:38;;;;;;;1.70;1.43;;;12.00;99.90;;;;;;5083336;28;20560;-68
2022/11/17 08:51:05;;;;;;;2.00;1.70;;;12.10;99.90;;;;;;5077217;28;20984;-69
2022/11/17 08:53:32;;;;;;;3.03;1.37;;;12.10;99.90;;;;;;5077171;28;20500;-69
2022/11/17 08:55:59;;;;;;;1.50;1.40;;;12.30;99.90;;;;;;5077119;28;20496;-70
2022/11/17 08:58:25;;;;;;;3.87;1.43;;;12.40;99.90;;;;;;5077714;28;20450;-69
2022/11/17 09:00:53;;;;;;;5.20;1.20;;;12.50;99.90;;;;;;5076984;28;20454;-69
2022/11/17 09:03:20;;;;;;;3.30;1.37;;;12.70;99.90;;;;;;5076957;28;20456;-69
2022/11/17 09:05:47;;;;;;;4.17;1.20;;;13.00;99.90;;;;;;5076929;28;20470;-69
2022/11/17 09:08:13;;;;;;;1.13;0.80;;;13.10;99.90;;;;;;5076790;28;21003;-69
2022/11/17 09:10:40;;;;;;;0.83;0.60;;;13.30;99.90;;;;;;5076523;28;20470;-69
2022/11/17 09:13:07;;;;;;;1.13;0.70;;;13.40;99.90;;;;;;5078021;28;20843;-68
2022/11/17 09:15:34;;;;;;;3.30;1.30;;;13.50;99.90;;;;;;5078089;28;20973;-68
2022/11/17 09:18:02;;;;;;;3.40;1.37;;;13.90;99.90;;;;;;5076676;28;20450;-70
2022/11/17 09:20:30;;;;;;;0.63;0.60;;;14.50;99.90;;;;;;5077390;28;20473;-69
2022/11/17 09:22:59;;;;;;;2.60;1.40;;;14.50;99.90;;;;;;5076238;28;20937;-69
2022/11/17 09:25:26;;;;;;;2.40;1.70;;;14.30;99.90;;;;;;5076402;28;20560;-69
2022/11/17 09:27:52;;;;;;;2.73;2.10;;;14.20;99.90;;;;;;5077550;28;20450;-69
2022/11/17 09:30:21;;;;;;;1.03;0.60;;;14.20;99.90;;;;;;5076758;28;20523;-69
2022/11/17 09:32:48;;;;;;;0.80;0.80;;;14.00;99.90;;;;;;5076464;28;20877;-69
2022/11/17 09:35:16;;;;;;;3.47;0.80;;;13.90;99.90;;;;;;5076907;28;20474;-69
2022/11/17 09:37:43;;;;;;;1.43;0.87;;;13.80;99.90;;;;;;5076668;28;20454;-69
2022/11/17 09:40:14;;;;;;;0.93;0.70;;;13.70;99.90;;;;;;5075968;28;20446;-70
2022/11/17 09:42:42;;;;;;;0.80;0.77;;;13.60;99.90;;;;;;5076480;28;20496;-70
2022/11/17 09:51:52;;;;;;;3.20;1.00;;;13.40;99.90;;;;;;4991430;28;20820;-69
2022/11/17 09:54:27;;;;;;;0.80;0.60;;;13.40;99.90;;;;;;5035873;28;20464;-69
2022/11/17 09:56:57;;;;;;;1.17;1.00;;;13.40;99.90;;;;;;5036200;28;20436;-68
2022/11/17 09:59:27;;;;;;;1.20;0.83;;;13.40;99.90;;;;;;5035871;28;20448;-69
2022/11/17 10:01:54;;;;;;;0.87;0.70;;;13.40;99.90;;;;;;5036720;28;20452;-70
2022/11/17 10:04:21;;;;;;;4.07;0.80;;;13.50;99.90;;;;;;5036311;28;20472;-68
2022/11/17 10:06:51;;;;;;;2.20;1.00;;;13.50;99.90;;;;;;5035554;28;20947;-69
2022/11/17 10:09:34;;;;;;;1.27;0.87;;;13.50;99.90;;;;;;5035843;28;20452;-69
2022/11/17 10:12:14;;;;;;;3.00;1.03;;;13.60;99.90;;;;;;5036487;28;20432;-69
2022/11/17 10:14:41;;;;;;;6.13;1.20;;;13.60;99.90;;;;;;5035905;28;20472;-70
2022/11/17 10:17:09;;;;;;;2.37;1.00;;;13.50;99.90;;;;;;5035908;28;20447;-69
2022/11/17 10:19:38;;;;;;;1.70;0.70;;;13.50;99.90;;;;;;5035658;28;20538;-68
2022/11/17 10:22:19;;;;;;;4.80;1.40;;;13.50;99.90;;;;;;5049266;28;20785;-68
2022/11/17 10:24:49;;;;;;;2.20;0.90;;;13.60;99.90;;;;;;5050768;28;20514;-69
2022/11/17 10:27:20;;;;;;;1.80;1.10;;;13.70;99.90;;;;;;5039593;28;20432;-69
2022/11/17 10:29:57;;;;;;;1.33;0.70;;;13.90;99.90;;;;;;5036369;28;20494;-69
2022/11/17 10:32:24;;;;;;;4.73;1.40;;;14.40;99.90;;;;;;5035243;28;20456;-69
2022/11/17 10:34:53;;;;;;;1.43;1.13;;;14.50;99.90;;;;;;5035062;28;20472;-69
2022/11/17 10:37:28;;;;;;;3.53;1.10;;;14.50;99.90;;;;;;5035203;28;20559;-68
2022/11/17 10:40:23;;;;;;;2.00;1.23;;;14.60;99.90;;;;;;5034896;28;20974;-68
2022/11/17 10:43:00;;;;;;;1.80;1.03;;;14.50;99.90;;;;;;5000051;28;20799;-69
2022/11/17 10:45:27;;;;;;;3.77;1.40;;;14.50;99.90;;;;;;5037551;28;20472;-69
2022/11/17 10:48:08;;;;;;;3.67;1.20;;;14.50;99.90;;;;;;5035481;28;20436;-67
2022/11/17 10:50:34;;;;;;;1.47;0.90;;;14.40;99.90;;;;;;5034819;28;21102;-69
2022/11/17 10:53:21;;;;;;;6.90;1.70;;;14.20;99.90;;;;;;5035077;28;20513;-68
2022/11/17 10:55:55;;;;;;;2.63;1.30;;;14.10;99.90;;;;;;5034853;28;21053;-69
2022/11/17 10:58:25;;;;;;;2.97;1.43;;;14.00;99.90;;;;;;5035216;28;20436;-69
2022/11/17 11:00:54;;;;;;;4.13;1.40;;;13.90;99.90;;;;;;5035482;28;21013;-69
2022/11/17 11:03:23;;;;;;;2.83;1.27;;;13.90;99.90;;;;;;5035127;28;20471;-69
2022/11/17 11:06:05;;;;;;;2.43;1.27;;;13.90;99.90;;;;;;5034912;28;20478;-68
2022/11/17 11:08:51;;;;;;;2.03;0.97;;;14.00;99.90;;;;;;5035065;28;20440;-69
2022/11/17 11:11:28;;;;;;;2.37;1.17;;;14.30;99.90;;;;;;5034790;28;20460;-68
2022/11/17 11:13:59;;;;;;;3.20;1.40;;;14.50;99.90;;;;;;5034839;28;20514;-68
2022/11/17 11:16:29;;;;;;;2.17;1.00;;;14.60;99.90;;;;;;5034662;28;20502;-69
2022/11/17 11:18:57;;;;;;;2.97;1.60;;;14.80;99.90;;;;;;5034530;28;20506;-69
2022/11/17 11:21:45;;;;;;;3.60;1.10;;;14.90;99.90;;;;;;5034576;28;20448;-70
2022/11/17 11:24:22;;;;;;;2.00;1.03;;;15.10;99.90;;;;;;5034427;28;20440;-69
2022/11/17 11:26:57;;;;;;;5.23;1.37;;;15.30;99.90;;;;;;5037860;28;20490;-69
2022/11/17 11:29:33;;;;;;;2.53;0.90;;;15.40;99.90;;;;;;5036214;28;20493;-70
2022/11/17 11:32:19;;;;;;;5.37;1.47;;;15.50;99.90;;;;;;5034672;28;20460;-70
2022/11/17 11:35:04;;;;;;;3.07;1.00;;;15.70;99.90;;;;;;5034824;28;20882;-69
2022/11/17 11:37:37;;;;;;;3.63;1.30;;;15.90;99.90;;;;;;5034056;28;20475;-69
2022/11/17 11:40:14;;;;;;;3.70;1.13;;;16.10;99.90;;;;;;5034307;28;20436;-68
2022/11/17 11:42:52;;;;;;;2.60;1.10;;;16.00;99.90;;;;;;5034015;28;20442;-69
2022/11/17 11:45:24;;;;;;;2.83;0.90;;;16.10;99.90;;;;;;5033974;28;20476;-69
2022/11/17 11:48:11;;;;;;;2.83;1.23;;;15.90;99.90;;;;;;5034224;28;20440;-69
2022/11/17 11:50:48;;;;;;;1.83;0.83;;;15.70;99.90;;;;;;5034230;28;20487;-69
2022/11/17 11:53:21;;;;;;;5.17;0.93;;;15.50;99.90;;;;;;5034329;28;20471;-69
2022/11/17 11:55:57;;;;;;;3.20;0.80;;;15.30;99.90;;;;;;5034208;28;20480;-69
2022/11/17 11:58:24;;;;;;;2.00;0.80;;;15.40;99.90;;;;;;5034213;28;20443;-69
2022/11/17 12:00:56;;;;;;;2.60;0.97;;;15.30;99.90;;;;;;5034300;28;20444;-68
2022/11/17 12:03:27;;;;;;;1.30;0.90;;;15.50;99.90;;;;;;5033754;28;20858;-69
2022/11/17 12:08:54;;;;;;;2.00;1.07;;;15.50;99.90;;;;;;5033775;28;20439;-69
2022/11/17 12:14:14;;;;;;;4.00;1.40;;;15.50;99.90;;;;;;5034402;28;20542;-69
2022/11/17 12:16:43;;;;;;;2.07;1.10;;;15.50;99.90;;;;;;5037892;28;20456;-68
2022/11/17 12:19:49;;;;;;;3.90;0.87;;;15.50;99.90;;;;;;5034415;28;20541;-69
2022/11/17 12:22:45;;;;;;;2.47;1.00;;;15.60;99.90;;;;;;5033948;28;20432;-69
2022/11/17 12:25:18;;;;;;;1.40;0.73;;;15.60;99.90;;;;;;5034067;28;20480;-69
2022/11/17 12:27:48;;;;;;;2.10;0.77;;;15.70;99.90;;;;;;5033987;28;20452;-69
2022/11/17 12:30:53;;;;;;;3.90;1.20;;;15.60;99.90;;;;;;5033803;28;20482;-69
2022/11/17 12:33:20;;;;;;;1.00;0.90;;;15.60;99.90;;;;;;5036916;28;20490;-69
2022/11/17 12:36:15;;;;;;;3.80;1.00;;;15.80;99.90;;;;;;5044790;28;20472;-70
2022/11/17 12:38:42;;;;;;;2.50;0.87;;;15.90;99.90;;;;;;5045918;28;20459;-69
2022/11/17 12:41:09;;;;;;;2.13;1.20;;;15.90;99.90;;;;;;5043859;28;20449;-69
2022/11/17 12:43:36;;;;;;;4.57;1.10;;;16.00;99.90;;;;;;5036406;28;20510;-68
2022/11/17 12:46:16;;;;;;;1.43;0.70;;;16.10;99.90;;;;;;5035349;28;20479;-69
2022/11/17 12:48:51;;;;;;;1.93;1.10;;;16.20;99.90;;;;;;5038492;28;20846;-69
2022/11/17 12:51:30;;;;;;;5.23;0.80;;;16.20;99.90;;;;;;5038770;28;20491;-69
2022/11/17 12:54:12;;;;;;;2.93;1.00;;;16.10;99.90;;;;;;5038637;28;20519;-69
2022/11/17 12:56:53;;;;;;;2.07;1.00;;;16.20;99.90;;;;;;5038036;28;20838;-70
2022/11/17 12:59:49;;;;;;;1.63;1.53;;;16.20;99.90;;;;;;5042281;28;20447;-69
2022/11/17 13:02:31;;;;;;;3.30;1.53;;;16.20;99.90;;;;;;5038095;28;20448;-69
2022/11/17 13:05:02;;;;;;;2.63;1.10;;;16.10;99.90;;;;;;5037719;28;20475;-69
2022/11/17 13:07:30;;;;;;;3.47;0.90;;;16.00;99.90;;;;;;5037767;28;20497;-69
2022/11/17 13:09:58;;;;;;;3.80;1.33;;;15.90;99.90;;;;;;5036759;28;20499;-69
2022/11/17 13:12:27;;;;;;;2.87;1.27;;;15.90;99.90;;;;;;5036625;28;20482;-69
2022/11/17 13:14:55;;;;;;;3.03;1.13;;;15.90;99.90;;;;;;5036735;28;20471;-69
2022/11/17 13:17:27;;;;;;;3.23;0.90;;;15.80;99.90;;;;;;5037838;28;20865;-70
2022/11/17 13:20:01;;;;;;;3.33;2.03;;;15.80;99.90;;;;;;5038979;28;20443;-72
2022/11/17 13:22:29;;;;;;;5.33;1.77;;;15.80;99.90;;;;;;5038920;28;20451;-69
2022/11/17 13:24:56;;;;;;;3.37;1.67;;;15.80;99.90;;;;;;5038171;28;20822;-69
2022/11/17 13:27:25;;;;;;;2.07;1.07;;;15.80;99.90;;;;;;5038288;28;20459;-69
2022/11/17 13:29:52;;;;;;;3.57;1.33;;;15.80;99.90;;;;;;5038468;28;20436;-69
2022/11/17 13:32:22;;;;;;;6.20;1.30;;;15.80;99.90;;;;;;5038098;28;20819;-69
2022/11/17 13:34:51;;;;;;;3.60;1.00;;;15.90;99.90;;;;;;5038904;28;21052;-69
2022/11/17 13:37:21;;;;;;;6.37;1.63;;;15.90;99.90;;;;;;5037969;28;20467;-69
2022/11/17 13:40:00;;;;;;;4.30;1.47;;;16.10;99.90;;;;;;5037017;28;20908;-68
2022/11/17 13:42:30;;;;;;;2.77;1.33;;;16.10;99.90;;;;;;5036614;28;20431;-69
2022/11/17 13:45:00;;;;;;;3.90;1.60;;;16.10;99.90;;;;;;5036479;28;20566;-69